createdAt,value
2019-04-23T00:01:14.787Z,5.93
2019-04-23T00:02:40.791Z,5.20
2019-04-23T00:03:52.068Z,5.23
2019-04-23T00:04:52.807Z,5.00
2019-04-23T00:06:17.002Z,5.80
2019-04-23T00:07:15.808Z,5.40
2019-04-23T00:08:20.087Z,5.70
2019-04-23T00:10:30.348Z,5.57
2019-04-23T00:11:44.518Z,5.70
2019-04-23T00:12:58.385Z,5.47
2019-04-23T00:13:50.312Z,5.87
2019-04-23T00:15:04.493Z,5.10
2019-04-23T00:17:18.060Z,5.07
2019-04-23T00:18:28.172Z,5.50
2019-04-23T00:19:24.882Z,5.50
2019-04-23T00:20:25.729Z,5.47
2019-04-23T00:21:55.079Z,5.90
2019-04-23T00:23:11.100Z,5.23
2019-04-23T00:24:52.215Z,5.40
2019-04-23T00:26:03.961Z,5.93
2019-04-23T00:27:15.631Z,5.30
2019-04-23T00:29:18.558Z,5.37
2019-04-23T00:30:38.200Z,5.67
2019-04-23T00:33:46.157Z,5.60
2019-04-23T00:34:54.726Z,5.73
2019-04-23T00:35:59.706Z,6.00
2019-04-23T00:37:12.478Z,5.50
2019-04-23T00:38:16.713Z,5.43
2019-04-23T00:39:17.276Z,5.30
2019-04-23T00:40:25.835Z,6.03
2019-04-23T00:41:30.888Z,5.27
2019-04-23T00:42:38.415Z,6.40
2019-04-23T00:43:43.218Z,6.20
2019-04-23T00:45:48.692Z,5.93
2019-04-23T00:46:54.636Z,6.40
2019-04-23T00:48:09.271Z,6.10
2019-04-23T00:49:10.794Z,6.10
2019-04-23T00:50:41.360Z,5.73
2019-04-23T00:51:23.908Z,6.40
2019-04-23T00:53:35.708Z,5.57
2019-04-23T00:54:50.066Z,5.77
2019-04-23T00:55:47.687Z,6.47
2019-04-23T00:58:06.259Z,5.70
2019-04-23T00:59:05.405Z,5.80
2019-04-23T01:00:19.272Z,6.37
2019-04-23T01:01:19.897Z,5.97
2019-04-23T01:02:31.145Z,6.00
2019-04-23T01:03:26.782Z,6.10
2019-04-23T01:04:45.364Z,6.03
2019-04-23T01:05:41.008Z,6.13
2019-04-23T01:06:54.908Z,5.90
2019-04-23T01:07:58.219Z,5.83
2019-04-23T01:09:03.726Z,6.47
2019-04-23T01:10:25.621Z,6.13
2019-04-23T01:11:23.978Z,6.50
2019-04-23T01:12:38.408Z,6.73
2019-04-23T01:14:41.466Z,6.20
2019-04-23T01:15:54.256Z,6.40
2019-04-23T01:16:55.030Z,6.77
2019-04-23T01:18:18.675Z,6.17
2019-04-23T01:19:18.862Z,6.63
2019-04-23T01:20:40.637Z,6.57
2019-04-23T01:21:24.606Z,7.03
2019-04-23T01:22:31.574Z,6.57
2019-04-23T01:23:54.923Z,6.20
2019-04-23T01:25:09.779Z,6.27
2019-04-23T01:26:29.611Z,6.80
2019-04-23T01:28:00.746Z,6.70
2019-04-23T01:28:47.932Z,6.50
2019-04-23T01:29:58.540Z,6.47
2019-04-23T01:31:03.710Z,7.30
2019-04-23T01:32:08.565Z,7.03
2019-04-23T01:33:18.424Z,6.97
2019-04-23T01:34:28.018Z,7.33
2019-04-23T01:35:28.793Z,6.87
2019-04-23T01:36:44.685Z,6.90
2019-04-23T01:38:46.146Z,6.77
2019-04-23T01:39:52.832Z,7.00
2019-04-23T01:40:53.844Z,6.80
2019-04-23T01:42:04.112Z,6.67
2019-04-23T01:43:10.838Z,7.30
2019-04-23T01:44:14.344Z,7.10
2019-04-23T01:46:28.932Z,6.93
2019-04-23T01:47:39.032Z,7.30
2019-04-23T01:48:42.080Z,6.40
2019-04-23T01:49:56.465Z,7.37
2019-04-23T01:50:54.544Z,7.47
2019-04-23T01:52:01.672Z,7.30
2019-04-23T01:53:08.657Z,7.20
2019-04-23T01:54:09.523Z,7.37
2019-04-23T01:56:25.950Z,7.20
2019-04-23T01:57:30.649Z,7.57
2019-04-23T01:59:46.192Z,7.60
2019-04-23T02:00:47.506Z,6.77
2019-04-23T02:03:01.132Z,7.60
2019-04-23T02:04:11.281Z,6.90
2019-04-23T02:05:23.187Z,7.53
2019-04-23T02:06:20.520Z,7.20
2019-04-23T02:07:29.939Z,7.70
2019-04-23T02:08:28.017Z,7.57
2019-04-23T02:09:43.449Z,7.47
2019-04-23T02:10:51.336Z,7.90
2019-04-23T02:11:53.826Z,7.23
2019-04-23T02:13:03.169Z,7.70
2019-04-23T02:14:03.722Z,7.07
2019-04-23T02:15:14.053Z,7.47
2019-04-23T02:16:10.203Z,7.47
2019-04-23T02:17:24.926Z,6.80
2019-04-23T02:18:42.562Z,7.70
2019-04-23T02:19:42.365Z,7.90
2019-04-23T02:20:46.135Z,7.17
2019-04-23T02:22:18.099Z,8.33
2019-04-23T02:23:31.215Z,7.47
2019-04-23T02:24:41.286Z,7.43
2019-04-23T02:25:50.372Z,8.00
2019-04-23T02:27:05.184Z,8.10
2019-04-23T02:28:06.031Z,8.00
2019-04-23T02:29:14.140Z,8.57
2019-04-23T02:30:36.146Z,8.40
2019-04-23T02:32:31.960Z,8.23
2019-04-23T02:34:57.695Z,8.17
2019-04-23T02:36:55.013Z,8.73
2019-04-23T02:41:19.288Z,8.63
2019-04-23T02:43:01.666Z,7.83
2019-04-23T02:44:50.698Z,8.00
2019-04-23T02:45:54.583Z,8.73
2019-04-23T02:46:56.790Z,8.87
2019-04-23T02:48:01.828Z,8.43
2019-04-23T02:49:12.449Z,8.17
2019-04-23T02:51:10.855Z,9.03
2019-04-23T02:53:37.627Z,8.60
2019-04-23T02:57:50.363Z,8.87
2019-04-23T02:59:05.613Z,8.73
2019-04-23T03:03:44.115Z,8.90
2019-04-23T03:04:37.194Z,8.37
2019-04-23T03:07:49.575Z,9.47
2019-04-23T03:09:58.790Z,9.07
2019-04-23T03:12:20.124Z,8.80
2019-04-23T03:13:30.805Z,9.27
2019-04-23T03:14:26.775Z,9.73
2019-04-23T03:15:50.701Z,9.17
2019-04-23T03:18:42.087Z,9.43
2019-04-23T03:19:52.348Z,9.80
2019-04-23T03:21:24.067Z,9.33
2019-04-23T03:23:31.888Z,9.17
2019-04-23T03:24:55.469Z,9.67
2019-04-23T03:26:08.540Z,8.67
2019-04-23T03:28:25.269Z,9.70
2019-04-23T03:32:30.238Z,9.37
2019-04-23T03:34:56.403Z,9.30
2019-04-23T03:38:41.670Z,9.80
2019-04-23T03:39:50.437Z,9.37
2019-04-23T03:40:37.313Z,9.37
2019-04-23T03:41:50.762Z,9.70
2019-04-23T03:43:01.315Z,11.80
2019-04-23T03:43:51.475Z,9.90
2019-04-23T03:45:27.891Z,9.77
2019-04-23T03:48:41.620Z,10.07
2019-04-23T03:49:33.305Z,10.07
2019-04-23T03:50:35.845Z,10.30
2019-04-23T03:51:42.827Z,10.07
2019-04-23T03:54:05.030Z,10.10
2019-04-23T03:55:06.162Z,11.30
2019-04-23T03:56:18.900Z,9.57
2019-04-23T03:58:28.180Z,9.47
2019-04-23T04:01:34.745Z,9.43
2019-04-23T04:04:20.672Z,9.97
2019-04-23T04:05:14.418Z,10.07
2019-04-23T04:06:15.414Z,9.83
2019-04-23T04:07:18.558Z,9.47
2019-04-23T04:10:31.607Z,9.50
2019-04-23T04:11:25.773Z,9.63
2019-04-23T04:12:46.338Z,11.20
2019-04-23T04:13:50.820Z,9.20
2019-04-23T04:14:54.414Z,9.90
2019-04-23T04:16:01.299Z,9.83
2019-04-23T04:17:12.399Z,9.77
2019-04-23T04:19:25.170Z,10.73
2019-04-23T04:20:33.164Z,10.13
2019-04-23T04:22:47.109Z,9.90
2019-04-23T04:23:42.764Z,9.60
2019-04-23T04:26:02.247Z,9.87
2019-04-23T04:27:05.648Z,9.97
2019-04-23T04:29:10.830Z,9.37
2019-04-23T04:30:22.136Z,9.20
2019-04-23T04:31:30.986Z,9.80
2019-04-23T04:32:31.600Z,9.93
2019-04-23T04:33:49.015Z,9.63
2019-04-23T04:35:54.417Z,9.67
2019-04-23T04:38:16.511Z,10.30
2019-04-23T04:39:02.901Z,9.87
2019-04-23T04:40:23.586Z,10.00
2019-04-23T04:41:25.657Z,9.40
2019-04-23T04:44:42.692Z,9.37
2019-04-23T04:45:52.102Z,9.33
2019-04-23T04:46:49.993Z,9.37
2019-04-23T04:49:05.541Z,9.73
2019-04-23T04:50:19.252Z,9.80
2019-04-23T04:51:20.727Z,9.73
2019-04-23T04:52:34.250Z,10.03
2019-04-23T04:53:47.417Z,9.53
2019-04-23T04:54:22.743Z,9.67
2019-04-23T04:56:43.064Z,9.17
2019-04-23T04:57:56.686Z,9.70
2019-04-23T05:00:10.410Z,9.87
2019-04-23T05:03:25.971Z,9.63
2019-04-23T05:08:54.473Z,9.60
2019-04-23T05:11:07.776Z,10.03
2019-04-23T05:15:25.434Z,10.63
2019-04-23T05:16:34.581Z,9.13
2019-04-23T05:18:00.328Z,10.43
2019-04-23T05:19:03.552Z,10.00
2019-04-23T05:20:16.976Z,9.33
2019-04-23T05:21:16.056Z,10.50
2019-04-23T05:22:17.085Z,9.70
2019-04-23T05:24:33.276Z,10.00
2019-04-23T05:25:31.766Z,11.33
2019-04-23T05:26:38.319Z,9.80
2019-04-23T05:27:53.557Z,10.17
2019-04-23T05:30:02.833Z,10.73
2019-04-23T05:31:21.689Z,10.63
2019-04-23T05:32:23.730Z,9.70
2019-04-23T05:34:38.143Z,10.10
2019-04-23T05:36:52.034Z,9.90
2019-04-23T05:38:22.342Z,10.70
2019-04-23T05:39:08.313Z,10.17
2019-04-23T05:40:30.663Z,10.93
2019-04-23T05:42:37.910Z,9.97
2019-04-23T05:43:40.886Z,10.03
2019-04-23T05:45:49.650Z,10.10
2019-04-23T05:47:04.259Z,10.23
2019-04-23T05:48:13.252Z,9.90
2019-04-23T05:50:30.501Z,10.00
2019-04-23T05:52:31.295Z,9.83
2019-04-23T05:53:40.768Z,9.83
2019-04-23T05:54:46.495Z,10.10
2019-04-23T05:55:47.602Z,9.27
2019-04-23T05:56:53.921Z,10.10
2019-04-23T05:58:16.576Z,10.03
2019-04-23T05:59:06.675Z,10.40
2019-04-23T06:00:07.599Z,10.57
2019-04-23T06:02:35.297Z,9.83
2019-04-23T06:03:44.485Z,10.47
2019-04-23T06:04:43.146Z,9.80
2019-04-23T06:06:01.206Z,10.50
2019-04-23T06:08:03.430Z,10.27
2019-04-23T06:09:08.034Z,10.17
2019-04-23T06:10:14.999Z,9.63
2019-04-23T06:11:28.120Z,9.70
2019-04-23T06:12:26.673Z,10.53
2019-04-23T06:13:35.911Z,9.70
2019-04-23T06:14:47.464Z,10.47
2019-04-23T06:15:44.029Z,10.20
2019-04-23T06:18:02.001Z,9.53
2019-04-23T06:19:10.580Z,9.60
2019-04-23T06:20:24.969Z,9.73
2019-04-23T06:21:18.821Z,9.90
2019-04-23T06:22:28.925Z,10.70
2019-04-23T06:23:36.511Z,10.10
2019-04-23T06:24:39.802Z,9.80
2019-04-23T06:26:15.588Z,10.03
2019-04-23T06:27:58.088Z,9.57
2019-04-23T06:29:05.365Z,9.90
2019-04-23T06:30:03.978Z,9.53
2019-04-23T06:32:23.144Z,10.60
2019-04-23T06:33:27.302Z,10.10
2019-04-23T06:34:31.387Z,9.40
2019-04-23T06:35:43.825Z,9.53
2019-04-23T06:36:46.680Z,11.07
2019-04-23T06:38:28.093Z,9.43
2019-04-23T06:40:00.409Z,9.83
2019-04-23T06:41:11.722Z,10.10
2019-04-23T06:42:36.074Z,9.10
2019-04-23T06:43:24.088Z,9.80
2019-04-23T06:44:32.328Z,10.17
2019-04-23T06:45:37.445Z,10.17
2019-04-23T06:46:50.579Z,10.27
2019-04-23T06:47:54.171Z,10.50
2019-04-23T06:48:58.992Z,10.07
2019-04-23T06:49:58.195Z,10.27
2019-04-23T06:51:15.988Z,9.87
2019-04-23T06:53:19.728Z,10.03
2019-04-23T06:54:36.310Z,9.70
2019-04-23T06:55:35.765Z,11.20
2019-04-23T06:56:56.288Z,10.17
2019-04-23T06:57:48.170Z,9.87
2019-04-23T06:58:50.449Z,9.87
2019-04-23T06:59:59.269Z,9.50
2019-04-23T07:01:04.933Z,10.37
2019-04-23T07:02:11.825Z,9.60
2019-04-23T07:03:23.240Z,10.13
2019-04-23T07:04:30.028Z,10.27
2019-04-23T07:05:53.470Z,9.27
2019-04-23T07:07:19.520Z,9.00
2019-04-23T07:08:02.765Z,9.63
2019-04-23T07:09:13.139Z,9.20
2019-04-23T07:12:45.917Z,9.83
2019-04-23T07:13:40.182Z,9.33
2019-04-23T07:14:44.547Z,9.90
2019-04-23T07:15:58.570Z,9.80
2019-04-23T07:16:52.854Z,9.47
2019-04-23T07:17:54.319Z,9.30
2019-04-23T07:20:11.622Z,9.90
2019-04-23T07:21:18.326Z,9.20
2019-04-23T07:24:33.138Z,8.30
2019-04-23T07:25:40.373Z,8.77
2019-04-23T07:26:52.847Z,8.30
2019-04-23T07:27:47.392Z,8.50
2019-04-23T07:30:10.363Z,9.40
2019-04-23T07:31:19.163Z,8.90
2019-04-23T07:32:32.558Z,9.60
2019-04-23T07:33:27.915Z,9.50
2019-04-23T07:34:23.246Z,8.77
2019-04-23T07:35:30.505Z,8.77
2019-04-23T07:36:44.635Z,8.40
2019-04-23T07:37:57.187Z,8.63
2019-04-23T07:39:19.102Z,8.40
2019-04-23T07:41:54.916Z,9.27
2019-04-23T07:43:03.302Z,9.10
2019-04-23T07:44:46.660Z,9.00
2019-04-23T07:46:10.379Z,9.13
2019-04-23T07:47:43.560Z,9.30
2019-04-23T07:48:27.634Z,8.23
2019-04-23T07:49:56.550Z,8.00
2019-04-23T07:50:49.435Z,8.33
2019-04-23T07:52:01.267Z,8.20
2019-04-23T07:53:08.920Z,8.10
2019-04-23T07:54:09.530Z,7.97
2019-04-23T07:55:19.327Z,7.80
2019-04-23T07:56:27.916Z,7.77
2019-04-23T07:59:43.930Z,8.13
2019-04-23T08:00:45.579Z,8.27
2019-04-23T08:01:52.367Z,7.53
2019-04-23T08:02:58.324Z,8.10
2019-04-23T08:04:01.837Z,7.80
2019-04-23T08:05:15.667Z,7.73
2019-04-23T08:06:13.489Z,8.10
2019-04-23T08:07:21.271Z,8.03
2019-04-23T08:08:39.672Z,8.47
2019-04-23T08:09:43.424Z,7.97
2019-04-23T08:10:46.602Z,8.10
2019-04-23T08:12:02.897Z,7.90
2019-04-23T08:12:56.279Z,7.50
2019-04-23T08:13:56.976Z,8.03
2019-04-23T08:15:13.076Z,8.23
2019-04-23T08:16:25.993Z,7.60
2019-04-23T08:17:16.125Z,8.17
2019-04-23T08:18:27.633Z,7.70
2019-04-23T08:19:36.846Z,7.17
2019-04-23T08:20:35.310Z,7.53
2019-04-23T08:21:39.742Z,7.87
2019-04-23T08:22:48.037Z,8.13
2019-04-23T08:25:35.094Z,7.80
2019-04-23T08:26:59.671Z,7.13
2019-04-23T08:28:13.646Z,7.20
2019-04-23T08:29:27.638Z,8.03
2019-04-23T08:30:28.897Z,7.93
2019-04-23T08:31:40.291Z,8.30
2019-04-23T08:32:27.784Z,7.80
2019-04-23T08:33:49.979Z,7.83
2019-04-23T08:34:57.792Z,8.20
2019-04-23T08:35:58.882Z,7.07
2019-04-23T08:37:04.951Z,8.20
2019-04-23T08:39:18.270Z,7.33
2019-04-23T08:40:19.902Z,7.93
2019-04-23T08:41:36.019Z,10.00
2019-04-23T08:43:54.841Z,7.80
2019-04-23T08:48:20.637Z,7.47
2019-04-23T08:50:29.679Z,7.30
2019-04-23T08:51:57.058Z,8.43
2019-04-23T08:52:37.010Z,7.63
2019-04-23T08:53:42.423Z,7.40
2019-04-23T08:54:56.820Z,7.73
2019-04-23T08:56:12.023Z,7.03
2019-04-23T08:58:14.359Z,8.10
2019-04-23T08:59:25.389Z,7.57
2019-04-23T09:00:31.451Z,7.50
2019-04-23T09:01:48.009Z,7.30
2019-04-23T09:02:55.215Z,7.13
2019-04-23T09:03:55.959Z,7.43
2019-04-23T09:04:56.834Z,7.43
2019-04-23T09:07:04.485Z,7.53
2019-04-23T09:08:19.269Z,8.30
2019-04-23T09:09:12.733Z,7.07
2019-04-23T09:10:22.825Z,7.37
2019-04-23T09:11:41.659Z,8.07
2019-04-23T09:14:44.979Z,6.63
2019-04-23T09:15:51.779Z,7.00
2019-04-23T09:17:02.482Z,7.17
2019-04-23T09:18:04.260Z,6.70
2019-04-23T09:20:23.446Z,7.43
2019-04-23T09:21:22.130Z,7.07
2019-04-23T09:22:38.625Z,6.97
2019-04-23T09:23:45.136Z,7.20
2019-04-23T09:24:41.525Z,6.80
2019-04-23T09:25:47.760Z,6.30
2019-04-23T09:26:56.351Z,6.73
2019-04-23T09:28:16.113Z,6.97
2019-04-23T09:31:45.596Z,7.27
2019-04-23T09:32:40.200Z,7.10
2019-04-23T09:33:58.358Z,6.23
2019-04-23T09:35:26.029Z,5.93
2019-04-23T09:36:41.925Z,6.70
2019-04-23T09:38:07.073Z,7.00
2019-04-23T09:39:34.753Z,6.33
2019-04-23T09:41:15.172Z,7.17
2019-04-23T09:42:27.964Z,6.47
2019-04-23T09:43:38.570Z,6.00
2019-04-23T09:45:26.925Z,6.43
2019-04-23T09:46:23.481Z,6.73
2019-04-23T09:50:23.538Z,6.40
2019-04-23T09:51:32.776Z,6.10
2019-04-23T09:52:42.594Z,6.30
2019-04-23T09:53:33.822Z,6.53
2019-04-23T09:54:51.348Z,5.93
2019-04-23T09:56:01.173Z,6.10
2019-04-23T09:56:52.275Z,6.07
2019-04-23T09:59:15.686Z,5.80
2019-04-23T10:00:22.934Z,6.40
2019-04-23T10:02:28.234Z,5.93
2019-04-23T10:03:26.930Z,6.00
2019-04-23T10:04:31.935Z,5.90
2019-04-23T10:05:33.626Z,6.10
2019-04-23T10:06:36.210Z,5.70
2019-04-23T10:07:47.019Z,5.90
2019-04-23T10:08:50.006Z,5.30
2019-04-23T10:09:51.320Z,5.50
2019-04-23T10:10:57.386Z,5.33
2019-04-23T10:12:03.111Z,5.33
2019-04-23T10:13:08.342Z,5.30
2019-04-23T10:14:14.485Z,6.00
2019-04-23T10:15:25.015Z,6.10
2019-04-23T10:16:29.757Z,5.00
2019-04-23T10:17:31.927Z,5.40
2019-04-23T10:18:37.337Z,5.57
2019-04-23T10:19:42.714Z,5.10
2019-04-23T10:20:48.631Z,5.13
2019-04-23T10:21:53.418Z,5.30
2019-04-23T10:22:57.801Z,6.00
2019-04-23T10:24:03.375Z,5.33
2019-04-23T10:25:08.878Z,5.37
2019-04-23T10:26:14.235Z,5.57
2019-04-23T10:27:18.923Z,5.60
2019-04-23T10:28:31.658Z,5.20
2019-04-23T10:29:38.457Z,5.33
2019-04-23T10:30:42.978Z,5.07
2019-04-23T10:31:47.445Z,5.30
2019-04-23T10:32:51.806Z,5.70
2019-04-23T10:33:57.809Z,5.50
2019-04-23T10:35:14.653Z,5.50
2019-04-23T10:36:13.046Z,4.93
2019-04-23T10:37:15.562Z,5.53
2019-04-23T10:38:21.873Z,5.00
2019-04-23T10:39:31.758Z,6.20
2019-04-23T10:40:38.041Z,6.07
2019-04-23T10:41:40.542Z,5.30
2019-04-23T10:42:47.581Z,4.70
2019-04-23T10:43:56.706Z,5.00
2019-04-23T10:45:27.198Z,5.60
2019-04-23T10:46:53.696Z,5.80
2019-04-23T10:49:48.996Z,5.43
2019-04-23T10:50:51.366Z,5.27
2019-04-23T10:54:30.926Z,5.63
2019-04-23T10:55:27.163Z,4.83
2019-04-23T10:56:36.112Z,5.50
2019-04-23T10:57:32.579Z,5.77
2019-04-23T10:58:38.650Z,4.90
2019-04-23T10:59:49.046Z,4.73
2019-04-23T11:00:59.282Z,5.50
2019-04-23T11:02:23.959Z,5.27
2019-04-23T11:03:31.818Z,5.40
2019-04-23T11:04:34.245Z,5.20
2019-04-23T11:05:30.423Z,4.70
2019-04-23T11:06:45.292Z,5.53
2019-04-23T11:08:55.920Z,5.77
2019-04-23T11:10:03.311Z,5.37
2019-04-23T11:11:07.919Z,5.30
2019-04-23T11:12:37.118Z,5.53
2019-04-23T11:13:49.753Z,5.10
2019-04-23T11:14:41.941Z,4.83
2019-04-23T11:15:58.681Z,5.53
2019-04-23T11:16:57.225Z,5.50
2019-04-23T11:17:52.116Z,5.20
2019-04-23T11:19:07.790Z,5.53
2019-04-23T11:21:27.419Z,5.60
2019-04-23T11:22:42.563Z,5.10
2019-04-23T11:23:28.833Z,5.27
2019-04-23T11:24:44.156Z,4.97
2019-04-23T11:25:50.432Z,5.77
2019-04-23T11:27:07.873Z,5.53
2019-04-23T11:29:20.902Z,4.57
2019-04-23T11:30:25.879Z,5.17
2019-04-23T11:31:35.248Z,5.07
2019-04-23T11:32:46.762Z,5.20
2019-04-23T11:33:39.240Z,4.77
2019-04-23T11:35:08.757Z,4.67
2019-04-23T11:36:03.545Z,4.58
2019-04-23T11:38:23.640Z,4.92
2019-04-23T11:40:15.722Z,4.70
2019-04-23T11:41:26.347Z,4.40
2019-04-23T11:42:28.071Z,5.20
2019-04-23T11:43:32.776Z,4.70
2019-04-23T11:44:41.965Z,4.37
2019-04-23T11:45:54.041Z,5.53
2019-04-23T11:48:22.099Z,5.28
2019-04-23T11:49:34.641Z,5.72
2019-04-23T11:50:39.687Z,4.78
2019-04-23T11:52:32.832Z,5.25
2019-04-23T11:53:35.640Z,5.55
2019-04-23T11:55:44.824Z,4.00
2019-04-23T11:57:14.365Z,4.00
2019-04-23T11:58:16.985Z,4.83
2019-04-23T11:59:25.856Z,4.67
2019-04-23T12:00:06.123Z,3.95
2019-04-23T12:01:42.238Z,4.72
2019-04-23T12:03:07.442Z,4.37
2019-04-23T12:04:51.735Z,4.87
2019-04-23T12:08:57.343Z,4.35
2019-04-23T12:10:23.533Z,4.12
2019-04-23T12:11:54.541Z,4.80
2019-04-23T12:12:44.679Z,4.90
2019-04-23T12:17:04.163Z,4.08
2019-04-23T12:18:02.883Z,4.15
2019-04-23T12:19:35.660Z,3.83
2019-04-23T12:21:31.347Z,4.17
2019-04-23T12:22:29.814Z,4.00
2019-04-23T12:25:56.742Z,4.50
2019-04-23T12:27:56.439Z,4.25
2019-04-23T12:29:13.281Z,3.62
2019-04-23T12:30:20.336Z,3.83
2019-04-23T12:31:29.264Z,3.98
2019-04-23T12:33:36.106Z,3.98
2019-04-23T12:34:49.338Z,4.03
2019-04-23T12:35:38.987Z,4.85
2019-04-23T12:36:50.929Z,4.05
2019-04-23T12:38:00.725Z,4.10
2019-04-23T12:39:11.274Z,4.00
2019-04-23T12:41:21.132Z,4.00
2019-04-23T12:42:48.913Z,4.35
2019-04-23T12:43:50.333Z,4.12
2019-04-23T12:44:51.702Z,3.83
2019-04-23T12:45:42.499Z,6.70
2019-04-23T12:46:57.647Z,4.10
2019-04-23T12:49:27.687Z,4.42
2019-04-23T12:50:38.075Z,4.12
2019-04-23T12:51:26.366Z,4.05
2019-04-23T12:52:37.930Z,4.30
2019-04-23T12:53:38.276Z,3.72
2019-04-23T12:57:09.077Z,4.30
2019-04-23T12:57:57.551Z,4.00
2019-04-23T12:59:01.822Z,4.30
2019-04-23T13:00:18.720Z,4.60
2019-04-23T13:01:13.781Z,4.80
2019-04-23T13:02:33.426Z,4.40
2019-04-23T13:03:29.789Z,3.30
2019-04-23T13:04:41.593Z,3.65
2019-04-23T13:05:34.117Z,3.92
2019-04-23T13:06:44.212Z,4.10
2019-04-23T13:07:52.075Z,4.72
2019-04-23T13:09:02.803Z,4.65
2019-04-23T13:10:21.070Z,4.28
2019-04-23T13:11:14.142Z,4.12
2019-04-23T13:12:33.061Z,6.90
2019-04-23T13:14:39.519Z,4.15
2019-04-23T13:15:34.285Z,3.92
2019-04-23T13:16:54.062Z,3.98
2019-04-23T13:20:01.426Z,3.50
2019-04-23T13:21:36.342Z,4.08
2019-04-23T13:22:21.425Z,3.60
2019-04-23T13:23:22.150Z,4.12
2019-04-23T13:24:48.759Z,4.30
2019-04-23T13:27:12.021Z,4.62
2019-04-23T13:28:14.087Z,3.52
2019-04-23T13:29:32.933Z,4.00
2019-04-23T13:30:31.613Z,3.70
2019-04-23T13:31:30.127Z,4.45
2019-04-23T13:32:38.991Z,4.87
2019-04-23T13:33:43.871Z,4.15
2019-04-23T13:34:58.844Z,4.47
2019-04-23T13:36:01.064Z,3.80
2019-04-23T13:36:59.764Z,4.08
2019-04-23T13:38:38.885Z,3.72
2019-04-23T13:39:18.469Z,3.80
2019-04-23T13:40:24.728Z,4.00
2019-04-23T13:42:40.340Z,4.22
2019-04-23T13:43:40.465Z,4.08
2019-04-23T13:44:46.731Z,4.10
2019-04-23T13:46:59.988Z,4.20
2019-04-23T13:49:07.952Z,5.78
2019-04-23T13:51:25.709Z,3.92
2019-04-23T13:52:59.844Z,5.67
2019-04-23T13:55:42.869Z,4.05
2019-04-23T13:57:23.915Z,4.95
2019-04-23T13:58:07.222Z,3.98
2019-04-23T13:59:15.649Z,5.58
2019-04-23T14:00:20.593Z,4.12
2019-04-23T14:01:26.243Z,3.92
2019-04-23T14:07:28.012Z,4.10
2019-04-23T14:08:33.530Z,4.97
2019-04-23T14:09:41.322Z,4.22
2019-04-23T14:10:39.717Z,3.87
2019-04-23T14:11:51.523Z,5.22
2019-04-23T14:13:10.796Z,4.97
2019-04-23T14:13:56.713Z,4.12
2019-04-23T14:15:04.890Z,3.98
2019-04-23T14:16:13.790Z,4.12
2019-04-23T14:18:43.328Z,4.55
2019-04-23T14:19:22.578Z,4.95
2019-04-23T14:20:34.803Z,4.12
2019-04-23T14:21:44.525Z,5.20
2019-04-23T14:23:00.009Z,4.10
2019-04-23T14:24:08.256Z,4.50
2019-04-23T14:25:08.073Z,4.78
2019-04-23T14:26:20.748Z,4.25
2019-04-23T14:27:14.343Z,5.30
2019-04-23T14:28:21.701Z,4.75
2019-04-23T14:29:32.458Z,4.50
2019-04-23T14:31:38.884Z,4.55
2019-04-23T14:32:45.741Z,4.03
2019-04-23T14:34:01.343Z,4.22
2019-04-23T14:35:08.544Z,4.75
2019-04-23T14:36:05.770Z,4.60
2019-04-23T14:38:23.452Z,4.65
2019-04-23T14:39:27.409Z,3.77
2019-04-23T14:41:36.301Z,4.70
2019-04-23T14:42:44.907Z,5.15
2019-04-23T14:43:48.710Z,4.83
2019-04-23T14:45:08.202Z,5.25
2019-04-23T14:47:24.059Z,5.12
2019-04-23T14:50:46.924Z,5.08
2019-04-23T14:51:51.593Z,5.15
2019-04-23T14:53:08.159Z,5.05
2019-04-23T14:54:22.941Z,5.05
2019-04-23T14:55:40.196Z,4.62
2019-04-23T14:57:35.179Z,4.92
2019-04-23T14:58:31.464Z,4.35
2019-04-23T14:59:29.015Z,4.53
2019-04-23T15:01:49.770Z,4.87
2019-04-23T15:03:02.989Z,4.70
2019-04-23T15:04:10.895Z,4.92
2019-04-23T15:05:13.164Z,4.55
2019-04-23T15:07:22.333Z,4.58
2019-04-23T15:08:32.852Z,5.42
2019-04-23T15:09:36.133Z,4.87
2019-04-23T15:10:41.706Z,5.15
2019-04-23T15:12:50.574Z,4.53
2019-04-23T15:13:53.863Z,4.87
2019-04-23T15:15:10.022Z,4.78
2019-04-23T15:17:17.803Z,5.00
2019-04-23T15:18:35.257Z,4.85
2019-04-23T15:19:58.069Z,5.50
2019-04-23T15:21:28.330Z,6.05
2019-04-23T15:22:16.610Z,5.47
2019-04-23T15:23:33.350Z,4.72
2019-04-23T15:25:53.145Z,5.58
2019-04-23T15:28:30.208Z,5.17
2019-04-23T15:29:48.451Z,5.35
2019-04-23T15:31:17.931Z,5.33
2019-04-23T15:32:09.947Z,5.67
2019-04-23T15:33:27.997Z,4.90
2019-04-23T15:34:30.971Z,4.75
2019-04-23T15:37:58.279Z,4.67
2019-04-23T15:39:04.127Z,4.42
2019-04-23T15:40:05.806Z,5.55
2019-04-23T15:41:07.412Z,4.85
2019-04-23T15:42:10.878Z,5.70
2019-04-23T15:45:28.892Z,5.75
2019-04-23T15:46:39.305Z,5.17
2019-04-23T15:47:45.323Z,5.58
2019-04-23T15:48:57.664Z,5.85
2019-04-23T15:51:04.145Z,5.20
2019-04-23T15:52:07.345Z,5.78
2019-04-23T15:53:05.942Z,5.10
2019-04-23T15:54:35.394Z,5.78
2019-04-23T15:55:22.487Z,6.03
2019-04-23T15:56:35.910Z,6.12
2019-04-23T15:57:54.123Z,5.78
2019-04-23T15:59:00.176Z,5.97
2019-04-23T16:00:02.275Z,6.05
2019-04-23T16:01:15.352Z,5.95
2019-04-23T16:01:51.048Z,6.05
2019-04-23T16:02:55.375Z,5.65
2019-04-23T16:04:01.231Z,5.67
2019-04-23T16:05:08.540Z,5.87
2019-04-23T16:06:16.545Z,5.90
2019-04-23T16:07:39.091Z,5.62
2019-04-23T16:09:05.372Z,5.90
2019-04-23T16:10:04.242Z,6.95
2019-04-23T16:11:17.153Z,6.78
2019-04-23T16:12:04.694Z,5.87
2019-04-23T16:13:37.403Z,6.47
2019-04-23T16:15:30.927Z,6.40
2019-04-23T16:16:39.801Z,6.70
2019-04-23T16:17:41.998Z,6.43
2019-04-23T16:18:58.968Z,6.53
2019-04-23T16:21:26.574Z,6.77
2019-04-23T16:22:18.547Z,7.30
2019-04-23T16:23:28.035Z,7.07
2019-04-23T16:24:26.569Z,6.90
2019-04-23T16:25:38.703Z,6.63
2019-04-23T16:26:55.822Z,7.17
2019-04-23T16:27:49.153Z,6.80
2019-04-23T16:29:19.048Z,6.93
2019-04-23T16:31:20.978Z,6.20
2019-04-23T16:32:22.861Z,6.87
2019-04-23T16:33:16.554Z,6.53
2019-04-23T16:35:15.632Z,7.13
2019-04-23T16:36:12.703Z,7.03
2019-04-23T16:37:16.954Z,7.00
2019-04-23T16:38:34.270Z,6.43
2019-04-23T16:39:22.062Z,6.17
2019-04-23T16:41:39.966Z,6.63
2019-04-23T16:42:49.372Z,7.03
2019-04-23T16:45:07.494Z,6.63
2019-04-23T16:46:07.220Z,6.77
2019-04-23T16:47:26.472Z,7.30
2019-04-23T16:48:26.258Z,6.27
2019-04-23T16:52:46.300Z,6.87
2019-04-23T16:53:47.044Z,6.37
2019-04-23T16:54:54.941Z,6.77
2019-04-23T16:56:04.771Z,6.67
2019-04-23T16:58:22.612Z,6.80
2019-04-23T17:01:24.979Z,6.50
2019-04-23T17:02:34.134Z,7.60
2019-04-23T17:04:53.030Z,6.03
2019-04-23T17:05:57.827Z,6.17
2019-04-23T17:07:08.421Z,6.30
2019-04-23T17:08:32.594Z,6.10
2019-04-23T17:09:09.470Z,7.33
2019-04-23T17:10:19.206Z,6.53
2019-04-23T17:12:25.108Z,6.77
2019-04-23T17:13:37.599Z,7.23
2019-04-23T17:14:41.574Z,6.60
2019-04-23T17:16:49.388Z,7.43
2019-04-23T17:18:03.503Z,6.60
2019-04-23T17:19:10.405Z,7.73
2019-04-23T17:20:19.768Z,6.90
2019-04-23T17:21:16.836Z,6.43
2019-04-23T17:22:24.901Z,6.67
2019-04-23T17:23:39.690Z,6.77
2019-04-23T17:24:46.052Z,6.53
2019-04-23T17:25:41.761Z,6.40
2019-04-23T17:27:09.302Z,7.27
2019-04-23T17:28:03.593Z,6.13
2019-04-23T17:29:09.800Z,6.63
2019-04-23T17:30:11.998Z,6.60
2019-04-23T17:32:38.579Z,7.27
2019-04-23T17:33:49.674Z,6.97
2019-04-23T17:35:19.197Z,6.83
2019-04-23T17:36:49.541Z,7.70
2019-04-23T17:38:00.734Z,6.77
2019-04-23T17:39:07.810Z,6.90
2019-04-23T17:40:17.727Z,7.13
2019-04-23T17:43:20.658Z,6.07
2019-04-23T17:45:30.777Z,6.93
2019-04-23T17:46:32.334Z,7.30
2019-04-23T17:47:35.502Z,6.77
2019-04-23T17:48:48.020Z,8.83
2019-04-23T17:51:07.970Z,7.07
2019-04-23T17:53:17.819Z,7.63
2019-04-23T17:54:17.887Z,8.20
2019-04-23T17:55:22.276Z,7.10
2019-04-23T17:56:39.313Z,6.63
2019-04-23T17:57:36.834Z,7.20
2019-04-23T17:58:40.890Z,6.50
2019-04-23T18:00:08.450Z,6.93
2019-04-23T18:03:40.012Z,7.13
2019-04-23T18:04:43.710Z,7.07
2019-04-23T18:05:51.463Z,6.90
2019-04-23T18:06:55.802Z,7.17
2019-04-23T18:07:59.395Z,7.03
2019-04-23T18:10:24.961Z,8.17
2019-04-23T18:11:27.896Z,8.00
2019-04-23T18:13:40.923Z,7.43
2019-04-23T18:14:34.756Z,8.20
2019-04-23T18:15:47.340Z,7.63
2019-04-23T18:17:09.385Z,7.23
2019-04-23T18:18:02.481Z,8.03
2019-04-23T18:20:16.352Z,8.63
2019-04-23T18:21:55.326Z,8.87
2019-04-23T18:24:23.399Z,8.47
2019-04-23T18:25:26.154Z,9.10
2019-04-23T18:26:38.661Z,8.60
2019-04-23T18:29:02.516Z,8.37
2019-04-23T18:30:08.020Z,8.73
2019-04-23T18:31:23.934Z,8.60
2019-04-23T18:33:01.348Z,8.20
2019-04-23T18:35:20.212Z,9.10
2019-04-23T18:36:05.320Z,9.60
2019-04-23T18:37:16.907Z,8.53
2019-04-23T18:39:32.897Z,9.70
2019-04-23T18:40:40.078Z,9.00
2019-04-23T18:41:43.370Z,8.67
2019-04-23T18:42:43.781Z,8.57
2019-04-23T18:43:51.091Z,8.77
2019-04-23T18:45:00.388Z,9.37
2019-04-23T18:47:07.175Z,7.83